Time;durP1;ratioP1;P1;durP2;ratioP2;P2;SDS_P1;SDS_P2;PMS_P1;PMS_P2;Temp;Humidity;BMP_temperature;BMP_pressure;BME280_temperature;BME280_humidity;BME280_pressure;Samples;Min_cycle;Max_cycle;Signal;HPM_P1;HPM_P2
2021/09/30 00:02:08;;;;;;;18.55;10.73;;;7.50;99.90;;;;;;5031009;28;20112;-66
2021/09/30 00:04:34;;;;;;;20.38;10.82;;;7.50;99.90;;;;;;5031090;28;20097;-66
2021/09/30 00:07:00;;;;;;;17.35;10.60;;;7.50;99.90;;;;;;5030830;28;20074;-66
2021/09/30 00:09:26;;;;;;;19.60;9.73;;;7.50;99.90;;;;;;5030995;28;20059;-66
2021/09/30 00:11:59;;;;;;;15.30;9.55;;;7.50;99.90;;;;;;5031003;28;20041;-66
2021/09/30 00:14:38;;;;;;;19.23;10.82;;;7.50;99.90;;;;;;5031107;28;20033;-66
2021/09/30 00:17:23;;;;;;;12.98;9.88;;;7.60;99.90;;;;;;5030862;28;20476;-66
2021/09/30 00:41:57;;;;;;;16.23;9.48;;;7.70;99.90;;;;;;5030335;28;20437;-65
2021/09/30 00:55:06;;;;;;;16.60;10.47;;;7.70;99.90;;;;;;5030106;28;20112;-65
2021/09/30 01:46:21;;;;;;;18.00;9.68;;;7.80;99.90;;;;;;5029473;28;20068;-64
2021/09/30 02:22:51;;;;;;;16.65;8.95;;;8.00;99.90;;;;;;5029241;28;20289;-65
2021/09/30 02:59:33;;;;;;;14.23;8.40;;;7.60;99.90;;;;;;5032216;28;20036;-65
2021/09/30 03:02:01;;;;;;;12.10;9.00;;;7.60;99.90;;;;;;5031973;28;20049;-65
2021/09/30 03:04:28;;;;;;;17.75;9.32;;;7.60;99.90;;;;;;5031803;28;20097;-65
2021/09/30 03:06:55;;;;;;;12.65;9.70;;;7.60;99.90;;;;;;5032111;28;20159;-65
2021/09/30 03:09:22;;;;;;;15.13;9.45;;;7.60;99.90;;;;;;5031879;28;20079;-65
2021/09/30 03:11:53;;;;;;;14.30;9.27;;;7.60;99.90;;;;;;5031540;28;20052;-65
2021/09/30 03:14:21;;;;;;;15.63;9.90;;;7.60;99.90;;;;;;5031772;28;20078;-65
2021/09/30 03:16:52;;;;;;;13.15;9.27;;;7.60;99.90;;;;;;5031794;28;20128;-65
2021/09/30 03:24:40;;;;;;;13.52;9.57;;;7.50;99.90;;;;;;5031548;28;20028;-65
2021/09/30 03:27:07;;;;;;;15.85;9.88;;;7.50;99.90;;;;;;5031518;28;20485;-65
2021/09/30 03:29:32;;;;;;;13.45;9.80;;;7.60;99.90;;;;;;5031351;28;20435;-65
2021/09/30 03:32:00;;;;;;;12.73;8.98;;;7.60;99.90;;;;;;5031270;28;20041;-65
2021/09/30 03:34:26;;;;;;;14.07;9.88;;;7.60;99.90;;;;;;5031617;28;20033;-65
2021/09/30 03:36:52;;;;;;;12.52;9.80;;;7.60;99.90;;;;;;5031574;28;20358;-65
2021/09/30 03:39:23;;;;;;;14.95;8.98;;;7.60;99.90;;;;;;5031691;28;20029;-65
2021/09/30 03:41:50;;;;;;;14.20;10.18;;;7.60;99.90;;;;;;5031180;28;20056;-65
2021/09/30 03:44:16;;;;;;;12.77;9.10;;;7.60;99.90;;;;;;5031234;28;20034;-65
2021/09/30 03:46:43;;;;;;;11.32;8.80;;;7.70;99.90;;;;;;5031056;28;20030;-65
2021/09/30 03:49:21;;;;;;;14.45;9.48;;;7.70;99.90;;;;;;5031522;28;20025;-65
2021/09/30 03:51:56;;;;;;;16.48;9.65;;;7.70;99.90;;;;;;5031254;28;20108;-65
2021/09/30 03:59:06;;;;;;;12.57;8.45;;;7.80;99.90;;;;;;5031073;28;20059;-65
2021/09/30 03:59:55;;;;;;;17.88;9.00;;;7.80;99.90;;;;;;5025416;28;20071;-65
2021/09/30 04:02:22;;;;;;;13.40;9.23;;;7.80;99.90;;;;;;5031138;28;20056;-65
2021/09/30 04:04:48;;;;;;;16.67;9.90;;;7.80;99.90;;;;;;5031246;28;20025;-65
2021/09/30 04:07:14;;;;;;;15.60;9.35;;;7.70;99.90;;;;;;5031049;28;20021;-65
2021/09/30 04:09:40;;;;;;;18.88;9.27;;;7.70;99.90;;;;;;5030866;28;20037;-64
2021/09/30 04:12:09;;;;;;;17.38;10.43;;;7.80;99.90;;;;;;5030994;28;20021;-64
2021/09/30 04:14:36;;;;;;;13.90;10.52;;;7.80;99.90;;;;;;5030780;28;20057;-64
2021/09/30 04:17:02;;;;;;;18.13;10.82;;;7.80;99.90;;;;;;5030647;28;20056;-65
2021/09/30 04:19:28;;;;;;;14.57;10.10;;;7.80;99.90;;;;;;5030688;28;20030;-65
2021/09/30 04:21:55;;;;;;;17.15;10.70;;;7.90;99.90;;;;;;5030647;28;20029;-65
2021/09/30 04:24:21;;;;;;;13.65;9.95;;;7.80;99.90;;;;;;5030922;28;20040;-65
2021/09/30 04:26:50;;;;;;;16.42;10.57;;;7.90;99.90;;;;;;5030522;28;20030;-65
2021/09/30 04:29:16;;;;;;;18.20;9.82;;;7.90;99.90;;;;;;5030899;28;20033;-65
2021/09/30 04:31:42;;;;;;;12.93;9.90;;;7.90;99.90;;;;;;5030325;28;20065;-65
2021/09/30 04:34:08;;;;;;;25.98;10.80;;;7.90;99.90;;;;;;5030452;28;20073;-66
2021/09/30 04:36:34;;;;;;;24.65;10.48;;;7.90;99.90;;;;;;5030109;28;20033;-67
2021/09/30 04:39:00;;;;;;;20.65;11.45;;;8.00;99.90;;;;;;5030474;28;20049;-67
2021/09/30 04:41:25;;;;;;;20.55;11.90;;;8.10;99.90;;;;;;5030289;28;20049;-66
2021/09/30 04:43:51;;;;;;;24.85;10.75;;;8.30;99.90;;;;;;5030119;28;20032;-66
2021/09/30 04:46:20;;;;;;;15.18;10.02;;;8.40;99.90;;;;;;5029807;28;20026;-66
2021/09/30 04:48:47;;;;;;;16.00;10.35;;;8.30;99.90;;;;;;5029967;28;20033;-65
2021/09/30 04:51:13;;;;;;;17.20;11.93;;;8.20;99.90;;;;;;5029923;28;20029;-64
2021/09/30 04:53:39;;;;;;;22.02;11.13;;;8.20;99.90;;;;;;5029905;28;20048;-64
2021/09/30 04:56:05;;;;;;;19.00;11.13;;;8.10;99.90;;;;;;5030207;28;20637;-65
2021/09/30 04:58:32;;;;;;;17.08;10.52;;;8.10;99.90;;;;;;5029675;28;20124;-65
2021/09/30 05:00:58;;;;;;;29.58;11.70;;;8.10;99.90;;;;;;5029808;28;20496;-64
2021/09/30 05:03:24;;;;;;;17.00;10.10;;;8.10;99.90;;;;;;5030245;28;20029;-64
2021/09/30 05:05:49;;;;;;;23.73;11.30;;;8.10;99.90;;;;;;5029969;28;20034;-64
2021/09/30 05:08:16;;;;;;;19.33;11.00;;;8.00;99.90;;;;;;5029681;28;20026;-64
2021/09/30 05:10:44;;;;;;;17.92;10.48;;;8.00;99.90;;;;;;5029488;28;20033;-64
2021/09/30 05:13:22;;;;;;;20.02;10.73;;;8.00;99.90;;;;;;5029877;28;20041;-64
2021/09/30 05:15:49;;;;;;;19.92;11.13;;;8.00;99.90;;;;;;5029836;28;20028;-65
2021/09/30 05:18:14;;;;;;;19.27;11.38;;;8.00;99.90;;;;;;5029899;28;20056;-65
2021/09/30 05:20:41;;;;;;;26.00;10.90;;;8.00;99.90;;;;;;5029696;28;20477;-64
2021/09/30 05:23:07;;;;;;;18.67;10.93;;;8.00;99.90;;;;;;5029688;28;20538;-64
2021/09/30 05:25:33;;;;;;;21.20;10.40;;;8.10;99.90;;;;;;5029795;28;20040;-64
2021/09/30 05:27:58;;;;;;;16.73;11.57;;;8.00;99.90;;;;;;5029636;28;20030;-64
2021/09/30 05:30:24;;;;;;;18.45;10.43;;;8.10;99.90;;;;;;5029825;28;20061;-65
2021/09/30 05:32:50;;;;;;;14.43;10.57;;;8.10;99.90;;;;;;5029480;28;20416;-64
2021/09/30 05:35:17;;;;;;;19.77;11.05;;;8.10;99.90;;;;;;5029456;28;20037;-65
2021/09/30 05:37:43;;;;;;;20.77;11.70;;;8.10;99.90;;;;;;5029283;28;20037;-64
2021/09/30 05:40:16;;;;;;;18.58;11.80;;;8.10;99.90;;;;;;5029494;28;20028;-65
2021/09/30 05:42:43;;;;;;;22.02;11.38;;;8.10;99.90;;;;;;5029205;28;20025;-65
2021/09/30 05:45:15;;;;;;;15.77;10.85;;;8.10;99.90;;;;;;5029454;28;20029;-64
2021/09/30 05:47:41;;;;;;;16.88;10.95;;;8.10;99.90;;;;;;5028842;28;20025;-64
2021/09/30 05:50:09;;;;;;;21.50;11.35;;;8.10;99.90;;;;;;5029199;28;20029;-65
2021/09/30 05:52:35;;;;;;;21.67;11.70;;;8.10;99.90;;;;;;5028939;28;20118;-65
2021/09/30 05:55:03;;;;;;;19.15;11.73;;;8.10;99.90;;;;;;5029097;28;20495;-65
2021/09/30 05:57:30;;;;;;;17.15;11.57;;;8.10;99.90;;;;;;5028426;28;20133;-65
2021/09/30 06:00:03;;;;;;;16.75;11.18;;;8.10;99.90;;;;;;5028437;28;20044;-65
2021/09/30 06:11:13;;;;;;;17.80;11.32;;;8.20;99.90;;;;;;5032112;28;20033;-65
2021/09/30 06:16:10;;;;;;;16.92;6.28;;;8.20;99.90;;;;;;5029223;28;20170;-65
2021/09/30 06:18:36;;;;;;;18.88;10.35;;;9.70;99.90;;;;;;5028661;28;20036;-65
2021/09/30 06:21:01;;;;;;;14.50;9.70;;;10.30;99.90;;;;;;5028806;28;20022;-65
2021/09/30 06:23:27;;;;;;;14.25;10.70;;;10.10;99.90;;;;;;5028791;28;20100;-64
2021/09/30 06:25:53;;;;;;;16.05;11.02;;;9.70;99.90;;;;;;5028612;28;20465;-64
2021/09/30 06:28:18;;;;;;;15.35;10.30;;;9.50;99.90;;;;;;5028676;28;20438;-64
2021/09/30 06:30:44;;;;;;;19.73;10.77;;;9.20;99.90;;;;;;5028505;28;20029;-64
2021/09/30 06:33:10;;;;;;;16.05;10.82;;;9.10;99.90;;;;;;5028573;28;20099;-64
2021/09/30 06:35:36;;;;;;;16.80;11.50;;;9.00;99.90;;;;;;5028497;28;20109;-64
2021/09/30 06:38:01;;;;;;;15.30;10.70;;;9.00;99.90;;;;;;5029044;28;20033;-64
2021/09/30 06:40:29;;;;;;;19.48;12.00;;;8.90;99.90;;;;;;5028703;28;20018;-64
2021/09/30 06:42:55;;;;;;;19.73;11.43;;;8.90;99.90;;;;;;5028611;28;20469;-64
2021/09/30 06:45:20;;;;;;;7.32;4.80;;;8.80;99.90;;;;;;5028665;28;20080;-64
2021/09/30 06:47:46;;;;;;;13.88;10.80;;;9.60;99.90;;;;;;5028432;28;20022;-64
2021/09/30 06:50:15;;;;;;;20.92;10.88;;;10.30;99.90;;;;;;5028862;28;20077;-66
2021/09/30 06:52:42;;;;;;;16.45;9.88;;;10.20;99.90;;;;;;5028642;28;20045;-66
2021/09/30 06:55:08;;;;;;;17.42;10.18;;;9.90;99.90;;;;;;5028498;28;20037;-66
2021/09/30 06:57:34;;;;;;;22.88;10.43;;;9.60;99.90;;;;;;5028272;28;20461;-63
2021/09/30 07:00:03;;;;;;;22.95;11.48;;;9.50;99.90;;;;;;5027997;28;20068;-64
2021/09/30 07:02:29;;;;;;;18.17;12.02;;;9.40;99.90;;;;;;5028692;28;20105;-64
2021/09/30 07:04:54;;;;;;;22.58;12.15;;;9.30;99.90;;;;;;5028421;28;20032;-65
2021/09/30 07:07:20;;;;;;;25.27;12.07;;;9.20;99.90;;;;;;5028144;28;20025;-63
2021/09/30 07:09:46;;;;;;;22.63;11.63;;;9.20;99.90;;;;;;5029404;28;20087;-64
2021/09/30 07:12:12;;;;;;;22.95;11.68;;;9.20;99.90;;;;;;5031360;28;20022;-63
2021/09/30 07:14:39;;;;;;;26.55;12.82;;;9.10;99.90;;;;;;5031607;28;20032;-64
2021/09/30 07:17:05;;;;;;;13.52;6.35;;;9.10;99.90;;;;;;5031379;28;20151;-64
2021/09/30 07:19:33;;;;;;;80.45;15.63;;;9.70;99.90;;;;;;5031335;28;20029;-63
2021/09/30 07:22:00;;;;;;;21.10;11.75;;;10.40;99.90;;;;;;5031344;28;20025;-63
2021/09/30 07:24:27;;;;;;;16.92;11.13;;;10.30;99.90;;;;;;5031646;28;20083;-64
2021/09/30 07:26:52;;;;;;;25.63;11.68;;;10.20;99.90;;;;;;5031416;28;20087;-64
2021/09/30 07:29:18;;;;;;;23.88;10.63;;;9.90;99.90;;;;;;5031370;28;20060;-64
2021/09/30 07:31:44;;;;;;;22.15;10.73;;;9.70;99.90;;;;;;5030649;28;20047;-64
2021/09/30 07:34:13;;;;;;;22.88;11.38;;;9.60;99.90;;;;;;5031297;28;20551;-66
2021/09/30 07:36:40;;;;;;;28.27;11.48;;;9.50;99.90;;;;;;5031031;28;20453;-67
2021/09/30 07:39:07;;;;;;;19.50;10.88;;;9.40;99.90;;;;;;5031322;28;20022;-66
2021/09/30 07:41:34;;;;;;;24.30;10.88;;;9.30;99.90;;;;;;5030937;28;20883;-67
2021/09/30 07:44:00;;;;;;;30.27;10.73;;;9.50;99.90;;;;;;5030851;28;20036;-66
2021/09/30 07:46:25;;;;;;;19.25;11.27;;;9.50;99.90;;;;;;5030856;28;20025;-66
2021/09/30 07:48:51;;;;;;;23.00;10.45;;;9.50;99.90;;;;;;5030814;28;20074;-65
2021/09/30 07:51:17;;;;;;;15.20;10.52;;;9.50;99.90;;;;;;5030864;28;20112;-66
2021/09/30 07:53:42;;;;;;;26.58;10.68;;;9.40;99.90;;;;;;5030497;28;20068;-65
2021/09/30 07:56:08;;;;;;;40.40;10.52;;;9.40;99.90;;;;;;5031128;28;20116;-66
2021/09/30 07:58:34;;;;;;;15.63;9.40;;;10.00;99.90;;;;;;5030819;28;20149;-72
2021/09/30 08:01:00;;;;;;;17.65;9.85;;;10.50;99.90;;;;;;5030600;28;20105;-66
2021/09/30 08:03:28;;;;;;;21.67;10.07;;;10.70;99.90;;;;;;5031116;28;20026;-66
2021/09/30 08:05:55;;;;;;;17.95;10.18;;;10.50;99.90;;;;;;5030643;28;20075;-66
2021/09/30 08:08:20;;;;;;;16.67;9.70;;;10.20;99.90;;;;;;5030800;28;20052;-63
2021/09/30 08:10:47;;;;;;;25.58;10.80;;;10.00;99.90;;;;;;5030621;28;20029;-63
2021/09/30 08:13:12;;;;;;;22.30;10.45;;;9.80;99.90;;;;;;5030922;28;20041;-66
2021/09/30 08:15:38;;;;;;;30.20;10.88;;;9.70;99.90;;;;;;5030983;28;20017;-63
2021/09/30 08:18:04;;;;;;;24.45;11.57;;;9.70;99.90;;;;;;5030516;28;20374;-64
2021/09/30 08:20:30;;;;;;;22.48;11.57;;;9.70;99.90;;;;;;5030209;28;20033;-64
2021/09/30 08:22:56;;;;;;;23.85;11.35;;;9.60;99.90;;;;;;5029917;28;20389;-65
2021/09/30 08:25:23;;;;;;;23.85;12.05;;;9.60;99.90;;;;;;5030809;28;20441;-65
2021/09/30 08:27:49;;;;;;;27.83;11.68;;;9.60;99.90;;;;;;5030657;28;20535;-65
2021/09/30 08:30:15;;;;;;;27.55;11.32;;;9.60;99.90;;;;;;5030381;28;20029;-65
2021/09/30 08:32:41;;;;;;;26.73;11.75;;;9.60;99.90;;;;;;5030545;28;20095;-64
2021/09/30 08:35:07;;;;;;;27.50;11.15;;;9.60;99.90;;;;;;5028943;28;20613;-64
2021/09/30 08:37:33;;;;;;;25.95;12.27;;;9.60;99.90;;;;;;5030114;28;20346;-64
2021/09/30 08:39:59;;;;;;;30.27;11.82;;;9.60;99.90;;;;;;5028895;28;20056;-65
2021/09/30 08:42:25;;;;;;;22.80;11.48;;;9.60;99.90;;;;;;5030429;28;20025;-64
2021/09/30 08:44:52;;;;;;;28.25;12.85;;;9.60;99.90;;;;;;5030135;28;20082;-65
2021/09/30 08:47:21;;;;;;;37.20;12.88;;;9.60;99.90;;;;;;5030180;28;20028;-65
2021/09/30 08:49:47;;;;;;;30.13;11.55;;;9.60;99.90;;;;;;5030372;28;20057;-64
2021/09/30 08:52:13;;;;;;;24.88;11.93;;;9.60;99.90;;;;;;5030072;28;20069;-65
2021/09/30 08:54:39;;;;;;;20.83;11.73;;;9.60;99.90;;;;;;5030451;28;20025;-65
2021/09/30 08:57:06;;;;;;;21.73;11.75;;;9.60;99.90;;;;;;5029823;28;20102;-65
2021/09/30 08:59:32;;;;;;;29.52;12.38;;;9.60;99.90;;;;;;5030266;28;20041;-65
2021/09/30 09:02:07;;;;;;;59.08;14.77;;;9.60;99.90;;;;;;5029636;28;20448;-65
2021/09/30 09:04:33;;;;;;;33.63;12.73;;;9.60;99.90;;;;;;5029961;28;20481;-65
2021/09/30 09:07:07;;;;;;;27.88;12.63;;;9.60;99.90;;;;;;5029793;28;20029;-65
2021/09/30 09:09:33;;;;;;;21.45;12.00;;;9.60;99.90;;;;;;5029998;28;20061;-65
2021/09/30 09:12:06;;;;;;;26.77;13.45;;;9.60;99.90;;;;;;5029570;28;20025;-64
2021/09/30 09:14:35;;;;;;;25.23;13.88;;;9.60;99.90;;;;;;5029852;28;20032;-65
2021/09/30 09:17:04;;;;;;;28.30;13.02;;;9.60;99.90;;;;;;5028245;28;20121;-65
2021/09/30 09:19:35;;;;;;;27.77;13.17;;;9.70;99.90;;;;;;5029771;28;20036;-64
2021/09/30 09:22:10;;;;;;;29.50;13.27;;;9.70;99.90;;;;;;5029654;28;20064;-65
2021/09/30 09:24:53;;;;;;;22.75;12.75;;;9.70;99.90;;;;;;5029576;28;20033;-64
2021/09/30 09:27:20;;;;;;;30.63;15.65;;;9.70;99.90;;;;;;5029474;28;20034;-64
2021/09/30 09:29:46;;;;;;;35.25;15.50;;;9.70;99.90;;;;;;5029457;28;20607;-64
2021/09/30 09:32:11;;;;;;;29.55;15.45;;;9.70;99.90;;;;;;5029206;28;20167;-64
2021/09/30 09:34:38;;;;;;;25.65;13.00;;;9.70;99.90;;;;;;5029783;28;20026;-64
2021/09/30 09:37:34;;;;;;;22.75;12.05;;;9.70;99.90;;;;;;5029262;28;20029;-64
2021/09/30 09:40:16;;;;;;;32.17;13.27;;;9.70;99.90;;;;;;5029384;28;20108;-65
2021/09/30 09:42:42;;;;;;;37.75;13.90;;;9.70;99.90;;;;;;5029405;28;20032;-64
2021/09/30 09:45:13;;;;;;;30.88;13.82;;;9.80;99.90;;;;;;5029028;28;20073;-65
2021/09/30 09:47:41;;;;;;;33.97;13.35;;;9.80;99.90;;;;;;5029240;28;20026;-65
2021/09/30 09:50:10;;;;;;;34.25;13.52;;;9.70;99.90;;;;;;5027850;28;20029;-64
2021/09/30 09:52:45;;;;;;;26.27;13.63;;;9.80;99.90;;;;;;5029020;28;20082;-65
2021/09/30 09:55:24;;;;;;;27.25;13.75;;;9.80;99.90;;;;;;5029280;28;20036;-65
2021/09/30 09:58:11;;;;;;;34.53;14.52;;;9.80;99.90;;;;;;5029281;28;20053;-65
2021/09/30 10:00:59;;;;;;;29.65;13.90;;;9.80;99.90;;;;;;5029390;28;20021;-65
2021/09/30 10:03:30;;;;;;;29.20;14.35;;;9.80;99.90;;;;;;5029243;28;20025;-65
2021/09/30 10:05:58;;;;;;;25.10;12.65;;;9.80;99.90;;;;;;5029004;28;20080;-64
2021/09/30 10:08:25;;;;;;;32.13;13.38;;;9.80;99.90;;;;;;5028826;28;20029;-65
2021/09/30 10:10:55;;;;;;;25.98;13.75;;;9.80;99.90;;;;;;5028692;28;20030;-65
2021/09/30 10:13:26;;;;;;;27.95;12.90;;;9.80;99.90;;;;;;5028707;28;20034;-66
2021/09/30 10:15:54;;;;;;;31.23;11.73;;;9.90;99.90;;;;;;5028519;28;20025;-64
2021/09/30 10:18:25;;;;;;;27.58;12.23;;;9.90;99.90;;;;;;5028679;28;20040;-65
2021/09/30 10:20:51;;;;;;;27.17;12.48;;;9.90;99.90;;;;;;5028646;28;20018;-65
2021/09/30 10:23:29;;;;;;;23.40;11.82;;;9.90;99.90;;;;;;5028662;28;20040;-65
2021/09/30 10:25:58;;;;;;;25.55;12.45;;;10.00;99.90;;;;;;5028955;28;20042;-65
2021/09/30 10:28:25;;;;;;;21.02;12.02;;;10.00;99.90;;;;;;5028567;28;20030;-65
2021/09/30 10:30:54;;;;;;;18.38;11.50;;;10.00;99.90;;;;;;5028684;28;20431;-65
2021/09/30 10:33:41;;;;;;;27.17;11.65;;;10.00;99.90;;;;;;5028394;28;20045;-65
2021/09/30 10:36:28;;;;;;;22.63;11.07;;;10.00;99.90;;;;;;5028350;28;20022;-65
2021/09/30 10:39:24;;;;;;;33.22;11.40;;;10.00;99.90;;;;;;5028904;28;20033;-66
2021/09/30 10:41:59;;;;;;;26.80;11.18;;;10.00;99.90;;;;;;5028236;28;20210;-65
2021/09/30 10:44:34;;;;;;;20.92;10.50;;;10.00;99.90;;;;;;5029271;28;20026;-65
2021/09/30 10:47:03;;;;;;;19.75;10.43;;;10.10;99.90;;;;;;5031791;28;20085;-66
2021/09/30 10:49:43;;;;;;;22.23;11.55;;;10.10;99.90;;;;;;5031966;28;20030;-65
2021/09/30 10:52:29;;;;;;;24.27;11.65;;;10.10;99.90;;;;;;5031740;28;20516;-65
2021/09/30 10:55:10;;;;;;;26.30;11.02;;;10.20;99.90;;;;;;5032118;28;20037;-66
2021/09/30 10:57:43;;;;;;;28.38;11.40;;;10.10;99.90;;;;;;5031647;28;20050;-65
2021/09/30 11:00:18;;;;;;;23.58;10.40;;;10.20;99.90;;;;;;5031685;28;20026;-66
2021/09/30 11:03:09;;;;;;;15.52;10.02;;;10.20;99.90;;;;;;5032045;28;20051;-66
2021/09/30 11:05:37;;;;;;;26.85;12.10;;;10.20;99.90;;;;;;5034431;28;20397;-66
2021/09/30 11:08:19;;;;;;;22.42;11.93;;;10.20;99.90;;;;;;5031928;28;20265;-66
2021/09/30 11:13:35;;;;;;;24.40;10.57;;;10.20;99.90;;;;;;5031663;28;20087;-65
2021/09/30 11:16:12;;;;;;;21.05;11.25;;;10.20;99.90;;;;;;5031779;28;20036;-66
2021/09/30 11:18:53;;;;;;;16.75;10.13;;;10.20;99.90;;;;;;5031513;28;20057;-66
2021/09/30 11:21:28;;;;;;;24.52;11.13;;;10.20;99.90;;;;;;5030207;28;20028;-66
2021/09/30 11:24:01;;;;;;;23.10;9.73;;;10.20;99.90;;;;;;5031534;28;20021;-66
2021/09/30 11:26:48;;;;;;;15.23;10.05;;;10.20;99.90;;;;;;5031708;28;20025;-66
2021/09/30 11:29:25;;;;;;;17.30;9.45;;;10.20;99.90;;;;;;5034292;28;20065;-66
2021/09/30 11:31:54;;;;;;;19.60;10.43;;;10.20;99.90;;;;;;5031134;28;20487;-65
2021/09/30 11:34:27;;;;;;;23.27;9.85;;;10.20;99.90;;;;;;5029982;28;20030;-66
2021/09/30 11:36:57;;;;;;;16.35;9.73;;;10.20;99.90;;;;;;5031282;28;20032;-66
2021/09/30 11:39:35;;;;;;;16.40;9.60;;;10.20;99.90;;;;;;5031288;28;20060;-66
2021/09/30 11:42:01;;;;;;;20.02;10.55;;;10.20;99.90;;;;;;5031079;28;20028;-66
2021/09/30 11:44:27;;;;;;;19.75;10.07;;;10.20;99.90;;;;;;5031179;28;20047;-65
2021/09/30 11:46:55;;;;;;;18.70;10.18;;;10.20;99.90;;;;;;5031029;28;20025;-66
2021/09/30 11:49:21;;;;;;;13.65;9.23;;;10.20;99.90;;;;;;5031031;28;20074;-66
2021/09/30 11:51:57;;;;;;;20.67;10.23;;;10.20;99.90;;;;;;5031066;28;20029;-66
2021/09/30 11:54:34;;;;;;;20.85;9.85;;;10.20;99.90;;;;;;5031475;28;20033;-65
2021/09/30 11:57:01;;;;;;;16.67;9.55;;;10.20;99.90;;;;;;5029433;28;20033;-66
2021/09/30 11:59:30;;;;;;;19.95;9.75;;;10.20;99.90;;;;;;5031157;28;20094;-66
2021/09/30 12:01:58;;;;;;;16.45;10.27;;;10.20;99.90;;;;;;5030734;28;20060;-66
2021/09/30 12:07:15;;;;;;;13.32;8.27;;;10.20;99.90;;;;;;5030958;28;20028;-66
2021/09/30 12:09:41;;;;;;;13.45;8.63;;;10.20;99.90;;;;;;5030847;28;20488;-66
2021/09/30 12:12:07;;;;;;;15.13;9.02;;;10.20;99.90;;;;;;5030755;28;20072;-66
2021/09/30 12:14:42;;;;;;;16.52;10.32;;;10.20;99.90;;;;;;5030577;28;20058;-66
2021/09/30 12:17:12;;;;;;;17.38;9.77;;;10.20;99.90;;;;;;5030559;28;20029;-66
2021/09/30 12:19:41;;;;;;;16.77;9.20;;;10.20;99.90;;;;;;5030570;28;20082;-66
2021/09/30 12:22:25;;;;;;;19.23;9.93;;;10.30;99.90;;;;;;5030301;28;20030;-66
2021/09/30 12:24:56;;;;;;;13.98;8.18;;;10.20;99.90;;;;;;5019407;28;20108;-65
2021/09/30 12:27:28;;;;;;;11.95;8.20;;;10.30;99.90;;;;;;5019681;28;20053;-65
2021/09/30 12:29:54;;;;;;;12.20;5.47;;;10.30;99.90;;;;;;5019243;28;20024;-67
2021/09/30 12:32:27;;;;;;;13.38;7.00;;;10.50;99.90;;;;;;5018922;28;20113;-71
2021/09/30 12:35:01;;;;;;;20.52;8.05;;;11.90;99.90;;;;;;5019463;28;20032;-69
2021/09/30 12:37:35;;;;;;;16.27;8.35;;;12.10;99.90;;;;;;5019968;28;20022;-66
2021/09/30 12:40:12;;;;;;;17.98;8.73;;;11.70;99.90;;;;;;5019168;28;20078;-66
2021/09/30 12:42:40;;;;;;;18.55;8.80;;;11.40;99.90;;;;;;5018877;28;20018;-66
2021/09/30 12:45:07;;;;;;;14.13;8.93;;;11.20;99.90;;;;;;5019895;28;20094;-66
2021/09/30 12:47:42;;;;;;;12.68;8.13;;;11.00;99.90;;;;;;5020852;28;20022;-66
2021/09/30 12:50:10;;;;;;;21.42;9.10;;;10.80;99.90;;;;;;5019896;28;20105;-66
2021/09/30 12:52:38;;;;;;;15.43;8.45;;;10.70;99.90;;;;;;5018436;28;20033;-66
2021/09/30 12:55:20;;;;;;;19.63;9.48;;;10.70;99.90;;;;;;5021557;28;20057;-66
2021/09/30 12:57:47;;;;;;;14.07;8.30;;;10.70;99.90;;;;;;5019458;28;20080;-66
2021/09/30 13:00:15;;;;;;;17.38;8.57;;;10.60;99.90;;;;;;5019047;28;20021;-66
2021/09/30 13:02:42;;;;;;;16.15;9.05;;;10.60;99.90;;;;;;5018929;28;20033;-66
2021/09/30 13:05:08;;;;;;;22.38;8.98;;;10.50;99.90;;;;;;5019669;28;20018;-66
2021/09/30 13:07:57;;;;;;;21.27;9.63;;;10.50;99.90;;;;;;5019729;28;20486;-67
2021/09/30 13:10:30;;;;;;;48.65;10.32;;;10.50;99.90;;;;;;5020172;28;20022;-67
2021/09/30 13:13:14;;;;;;;19.13;9.52;;;10.50;99.90;;;;;;5020242;28;20021;-65
2021/09/30 13:15:44;;;;;;;22.58;10.02;;;10.50;99.90;;;;;;5018661;28;20026;-67
2021/09/30 13:18:12;;;;;;;22.43;9.40;;;10.40;99.90;;;;;;5018739;28;20484;-66
2021/09/30 13:20:39;;;;;;;15.43;8.75;;;10.40;99.90;;;;;;5020528;28;20025;-66
2021/09/30 13:23:06;;;;;;;13.88;9.20;;;10.30;99.90;;;;;;5018776;28;20489;-66
2021/09/30 13:25:32;;;;;;;20.15;10.63;;;10.40;99.90;;;;;;5018653;28;20550;-66
2021/09/30 13:27:58;;;;;;;15.93;9.75;;;10.40;99.90;;;;;;5019973;28;20060;-67
2021/09/30 13:30:33;;;;;;;16.67;8.95;;;10.40;99.90;;;;;;5018754;28;20101;-66
2021/09/30 13:33:01;;;;;;;13.85;8.10;;;10.30;99.90;;;;;;5017748;28;20041;-66
2021/09/30 13:35:29;;;;;;;14.60;8.95;;;10.30;99.90;;;;;;5019358;28;20018;-67
2021/09/30 13:37:56;;;;;;;20.58;9.38;;;10.30;99.90;;;;;;5020212;28;20287;-67
2021/09/30 13:40:23;;;;;;;12.98;8.25;;;10.30;99.90;;;;;;5018218;28;20025;-66
2021/09/30 13:42:49;;;;;;;18.13;9.25;;;10.30;99.90;;;;;;5019029;28;20025;-66
2021/09/30 13:45:17;;;;;;;17.83;9.32;;;10.30;99.90;;;;;;5019688;28;20524;-66
2021/09/30 13:47:43;;;;;;;21.88;9.38;;;10.30;99.90;;;;;;5018376;28;20032;-66
2021/09/30 13:50:21;;;;;;;20.48;9.65;;;10.30;99.90;;;;;;5018679;28;20362;-67
2021/09/30 13:52:49;;;;;;;18.33;8.82;;;10.30;99.90;;;;;;5018562;28;20505;-66
2021/09/30 13:55:16;;;;;;;19.95;9.68;;;10.30;99.90;;;;;;5017908;28;21310;-66
2021/09/30 13:57:43;;;;;;;18.48;9.95;;;10.40;99.90;;;;;;5019753;28;20077;-67
2021/09/30 14:00:13;;;;;;;22.77;9.25;;;10.40;99.90;;;;;;5019827;28;20032;-67
2021/09/30 14:02:40;;;;;;;20.25;9.77;;;10.40;99.90;;;;;;5019992;28;20049;-67
2021/09/30 14:05:08;;;;;;;13.63;9.00;;;10.40;99.90;;;;;;5018886;28;20018;-67
2021/09/30 14:07:40;;;;;;;17.48;8.77;;;10.40;99.90;;;;;;5017999;28;20018;-67
2021/09/30 14:10:09;;;;;;;22.85;9.20;;;10.40;99.90;;;;;;5018634;28;20018;-67
2021/09/30 14:12:35;;;;;;;16.08;8.98;;;10.40;99.90;;;;;;5017734;28;20073;-67
2021/09/30 14:15:01;;;;;;;19.60;9.25;;;10.40;99.90;;;;;;5019536;28;20060;-67
2021/09/30 14:17:27;;;;;;;27.33;9.57;;;10.40;99.90;;;;;;5018798;28;20022;-67
2021/09/30 14:19:53;;;;;;;17.15;9.98;;;10.40;99.90;;;;;;5016757;28;20021;-67
2021/09/30 14:22:19;;;;;;;17.50;9.07;;;10.40;99.90;;;;;;5019861;28;20112;-67
2021/09/30 14:24:44;;;;;;;13.88;8.85;;;10.30;99.90;;;;;;5021010;28;20021;-67
2021/09/30 14:27:10;;;;;;;17.83;9.38;;;10.30;99.90;;;;;;5028770;28;20067;-67
2021/09/30 14:29:41;;;;;;;19.38;9.00;;;10.30;99.90;;;;;;5028931;28;20026;-65
2021/09/30 14:32:09;;;;;;;14.45;8.82;;;10.20;99.90;;;;;;5028766;28;20116;-65
2021/09/30 14:34:35;;;;;;;22.02;9.10;;;10.20;99.90;;;;;;5028832;28;20057;-64
2021/09/30 14:37:00;;;;;;;17.85;9.50;;;10.20;99.90;;;;;;5028625;28;20508;-64
2021/09/30 14:39:26;;;;;;;13.63;8.40;;;10.20;99.90;;;;;;5028768;28;20033;-64
2021/09/30 14:41:52;;;;;;;16.45;8.52;;;10.20;99.90;;;;;;5028812;28;20150;-64
2021/09/30 14:44:21;;;;;;;16.05;8.35;;;10.30;99.90;;;;;;5028458;28;20366;-64
2021/09/30 14:46:47;;;;;;;13.43;8.20;;;10.30;99.90;;;;;;5029065;28;20122;-64
2021/09/30 14:49:13;;;;;;;18.00;7.72;;;10.30;99.90;;;;;;5028618;28;20476;-64
2021/09/30 14:51:38;;;;;;;16.10;9.00;;;10.30;99.90;;;;;;5028239;28;20435;-64
2021/09/30 14:54:04;;;;;;;13.75;8.13;;;10.30;99.90;;;;;;5028497;28;20028;-63
2021/09/30 14:56:30;;;;;;;15.40;8.30;;;10.30;99.90;;;;;;5025100;28;20063;-66
2021/09/30 14:58:56;;;;;;;16.27;8.50;;;10.30;99.90;;;;;;5020102;28;20045;-65
2021/09/30 15:01:22;;;;;;;21.27;8.30;;;10.20;99.90;;;;;;5008696;28;20079;-66
2021/09/30 15:03:48;;;;;;;17.92;8.45;;;10.30;99.90;;;;;;5008598;28;20050;-66
2021/09/30 15:06:14;;;;;;;12.75;7.40;;;10.20;99.90;;;;;;5007231;28;20029;-65
2021/09/30 15:08:40;;;;;;;22.27;8.20;;;10.20;99.90;;;;;;5008778;28;20014;-65
2021/09/30 15:11:06;;;;;;;15.18;8.65;;;10.20;99.90;;;;;;5008417;28;20030;-66
2021/09/30 15:13:32;;;;;;;17.80;8.30;;;10.20;99.90;;;;;;5008707;28;20048;-65
2021/09/30 15:15:59;;;;;;;16.85;8.45;;;10.20;99.90;;;;;;5008646;28;20044;-65
2021/09/30 15:18:49;;;;;;;26.35;8.27;;;10.20;99.90;;;;;;5008740;28;20034;-65
2021/09/30 15:23:56;;;;;;;20.55;8.75;;;10.10;99.90;;;;;;5008599;28;20037;-65
2021/09/30 15:26:23;;;;;;;14.90;8.52;;;10.10;99.90;;;;;;5008563;28;20026;-65
2021/09/30 15:28:50;;;;;;;19.02;8.10;;;10.10;99.90;;;;;;5008622;28;20022;-65
2021/09/30 15:31:17;;;;;;;12.07;8.60;;;10.10;99.90;;;;;;5010245;28;20077;-65
2021/09/30 15:33:44;;;;;;;15.20;8.02;;;10.10;99.90;;;;;;5011608;28;20072;-65
2021/09/30 15:36:11;;;;;;;13.32;7.90;;;10.10;99.90;;;;;;5011662;28;20018;-65
2021/09/30 15:38:40;;;;;;;26.13;8.70;;;10.10;99.90;;;;;;5011578;28;20057;-64
2021/09/30 15:41:07;;;;;;;16.30;8.05;;;10.10;99.90;;;;;;5009497;28;20557;-64
2021/09/30 15:43:32;;;;;;;16.92;8.40;;;10.10;99.90;;;;;;5011356;28;20477;-65